sensor_id;sensor_type;location;lat;lon;timestamp;pressure;altitude;pressure_sealevel;temperature;humidity
75536;BME280;64119;52.070;20.804;2023-05-10T00:01:05;101030.59;;;5.78;61.80
75536;BME280;64119;52.070;20.804;2023-05-10T00:03:33;101027.28;;;5.70;61.89
75536;BME280;64119;52.070;20.804;2023-05-10T00:06:01;101025.73;;;5.62;61.88
75536;BME280;64119;52.070;20.804;2023-05-10T00:08:29;101024.92;;;5.54;62.97
75536;BME280;64119;52.070;20.804;2023-05-10T00:10:57;101022.35;;;5.46;62.97
75536;BME280;64119;52.070;20.804;2023-05-10T00:13:24;101020.11;;;5.38;62.48
75536;BME280;64119;52.070;20.804;2023-05-10T00:15:53;101018.21;;;5.27;65.37
75536;BME280;64119;52.070;20.804;2023-05-10T00:18:20;101015.26;;;5.18;64.04
75536;BME280;64119;52.070;20.804;2023-05-10T00:20:48;101013.89;;;5.09;63.73
75536;BME280;64119;52.070;20.804;2023-05-10T00:23:16;101009.85;;;5.02;63.36
75536;BME280;64119;52.070;20.804;2023-05-10T00:25:44;101007.02;;;4.95;64.30
75536;BME280;64119;52.070;20.804;2023-05-10T00:28:12;101009.55;;;4.86;63.53
75536;BME280;64119;52.070;20.804;2023-05-10T00:30:40;101008.52;;;4.78;63.11
75536;BME280;64119;52.070;20.804;2023-05-10T00:33:07;101009.92;;;4.68;65.72
75536;BME280;64119;52.070;20.804;2023-05-10T00:35:35;101006.80;;;4.60;64.31
75536;BME280;64119;52.070;20.804;2023-05-10T00:38:03;101005.30;;;4.55;64.56
75536;BME280;64119;52.070;20.804;2023-05-10T00:40:31;101003.23;;;4.51;63.21
75536;BME280;64119;52.070;20.804;2023-05-10T00:43:02;101005.33;;;4.45;63.45
75536;BME280;64119;52.070;20.804;2023-05-10T00:45:32;101007.51;;;4.38;64.42
75536;BME280;64119;52.070;20.804;2023-05-10T00:48:04;101010.25;;;4.31;66.12
75536;BME280;64119;52.070;20.804;2023-05-10T00:50:32;101008.08;;;4.26;66.94
75536;BME280;64119;52.070;20.804;2023-05-10T00:53:00;101005.03;;;4.20;65.98
75536;BME280;64119;52.070;20.804;2023-05-10T00:55:30;101007.64;;;4.17;65.48
75536;BME280;64119;52.070;20.804;2023-05-10T00:57:58;101003.55;;;4.11;65.76
75536;BME280;64119;52.070;20.804;2023-05-10T01:00:26;100998.18;;;4.07;66.57
75536;BME280;64119;52.070;20.804;2023-05-10T01:02:54;100996.44;;;4.00;65.06
75536;BME280;64119;52.070;20.804;2023-05-10T01:05:22;100995.24;;;3.95;65.23
75536;BME280;64119;52.070;20.804;2023-05-10T01:07:50;100997.70;;;3.89;66.38
75536;BME280;64119;52.070;20.804;2023-05-10T01:10:18;100997.55;;;3.83;66.51
75536;BME280;64119;52.070;20.804;2023-05-10T01:12:46;100993.72;;;3.79;66.80
75536;BME280;64119;52.070;20.804;2023-05-10T01:15:16;100994.65;;;3.76;66.75
75536;BME280;64119;52.070;20.804;2023-05-10T01:17:46;100990.94;;;3.72;66.46
75536;BME280;64119;52.070;20.804;2023-05-10T01:20:15;100994.46;;;3.68;66.18
75536;BME280;64119;52.070;20.804;2023-05-10T01:34:02;100995.34;;;3.44;72.11
75536;BME280;64119;52.070;20.804;2023-05-10T01:36:46;100993.30;;;3.36;70.65
75536;BME280;64119;52.070;20.804;2023-05-10T01:39:25;100991.98;;;3.33;69.95
75536;BME280;64119;52.070;20.804;2023-05-10T01:42:08;100994.09;;;3.31;67.50
75536;BME280;64119;52.070;20.804;2023-05-10T01:47:44;100995.35;;;3.24;71.21
75536;BME280;64119;52.070;20.804;2023-05-10T01:50:24;100996.20;;;3.21;71.73
75536;BME280;64119;52.070;20.804;2023-05-10T01:52:58;100993.14;;;3.13;70.63
75536;BME280;64119;52.070;20.804;2023-05-10T01:55:30;100992.97;;;3.09;70.24
75536;BME280;64119;52.070;20.804;2023-05-10T01:58:09;100991.16;;;3.05;70.38
75536;BME280;64119;52.070;20.804;2023-05-10T02:00:43;100989.87;;;3.02;70.41
75536;BME280;64119;52.070;20.804;2023-05-10T02:03:13;100987.48;;;2.99;71.23
75536;BME280;64119;52.070;20.804;2023-05-10T02:05:43;100984.34;;;2.97;69.76
75536;BME280;64119;52.070;20.804;2023-05-10T02:08:14;100985.86;;;2.96;70.51
75536;BME280;64119;52.070;20.804;2023-05-10T02:10:43;100983.33;;;2.92;72.87
75536;BME280;64119;52.070;20.804;2023-05-10T02:13:12;100986.98;;;2.88;73.89
75536;BME280;64119;52.070;20.804;2023-05-10T02:15:42;100983.64;;;2.84;72.16
75536;BME280;64119;52.070;20.804;2023-05-10T02:18:12;100981.58;;;2.80;72.12
75536;BME280;64119;52.070;20.804;2023-05-10T02:20:42;100979.98;;;2.78;70.88
75536;BME280;64119;52.070;20.804;2023-05-10T02:23:11;100981.98;;;2.75;70.01
75536;BME280;64119;52.070;20.804;2023-05-10T02:25:40;100981.08;;;2.73;68.96
75536;BME280;64119;52.070;20.804;2023-05-10T02:28:10;100978.84;;;2.70;70.11
75536;BME280;64119;52.070;20.804;2023-05-10T02:30:40;100979.21;;;2.65;72.83
75536;BME280;64119;52.070;20.804;2023-05-10T02:33:08;100975.96;;;2.62;71.48
75536;BME280;64119;52.070;20.804;2023-05-10T02:35:37;100969.95;;;2.61;72.35
75536;BME280;64119;52.070;20.804;2023-05-10T02:38:10;100969.80;;;2.59;70.78
75536;BME280;64119;52.070;20.804;2023-05-10T02:40:40;100968.61;;;2.56;69.80
75536;BME280;64119;52.070;20.804;2023-05-10T02:43:09;100965.50;;;2.54;71.40
75536;BME280;64119;52.070;20.804;2023-05-10T02:45:40;100963.61;;;2.49;75.84
75536;BME280;64119;52.070;20.804;2023-05-10T02:48:09;100963.98;;;2.47;72.42
75536;BME280;64119;52.070;20.804;2023-05-10T02:50:40;100966.73;;;2.41;74.63
75536;BME280;64119;52.070;20.804;2023-05-10T02:53:15;100969.13;;;2.37;73.28
75536;BME280;64119;52.070;20.804;2023-05-10T02:55:50;100968.52;;;2.36;70.54
75536;BME280;64119;52.070;20.804;2023-05-10T02:58:19;100970.70;;;2.33;74.62
75536;BME280;64119;52.070;20.804;2023-05-10T03:00:47;100968.06;;;2.28;75.83
75536;BME280;64119;52.070;20.804;2023-05-10T03:03:15;100967.88;;;2.22;73.86
75536;BME280;64119;52.070;20.804;2023-05-10T03:05:42;100969.14;;;2.19;74.50
75536;BME280;64119;52.070;20.804;2023-05-10T03:08:10;100974.38;;;2.15;74.91
75536;BME280;64119;52.070;20.804;2023-05-10T03:10:50;100973.52;;;2.08;75.57
75536;BME280;64119;52.070;20.804;2023-05-10T03:13:32;100973.28;;;2.07;76.22
75536;BME280;64119;52.070;20.804;2023-05-10T03:16:12;100974.99;;;2.07;75.37
75536;BME280;64119;52.070;20.804;2023-05-10T03:19:06;100975.92;;;2.09;73.39
75536;BME280;64119;52.070;20.804;2023-05-10T03:21:37;100979.27;;;2.11;72.95
75536;BME280;64119;52.070;20.804;2023-05-10T03:24:11;100979.09;;;2.11;78.33
75536;BME280;64119;52.070;20.804;2023-05-10T03:26:41;100980.57;;;2.12;74.58
75536;BME280;64119;52.070;20.804;2023-05-10T03:29:17;100975.74;;;2.13;77.16
75536;BME280;64119;52.070;20.804;2023-05-10T03:31:44;100976.50;;;2.15;73.00
75536;BME280;64119;52.070;20.804;2023-05-10T03:34:14;100969.05;;;2.18;70.33
75536;BME280;64119;52.070;20.804;2023-05-10T03:36:41;100972.23;;;2.24;69.79
75536;BME280;64119;52.070;20.804;2023-05-10T03:39:09;100969.62;;;2.33;69.76
75536;BME280;64119;52.070;20.804;2023-05-10T03:41:37;100973.97;;;2.44;71.46
75536;BME280;64119;52.070;20.804;2023-05-10T03:44:05;100970.48;;;2.55;70.74
75536;BME280;64119;52.070;20.804;2023-05-10T03:46:33;100975.26;;;2.67;73.45
75536;BME280;64119;52.070;20.804;2023-05-10T03:49:02;100981.66;;;2.81;72.75
75536;BME280;64119;52.070;20.804;2023-05-10T03:51:30;100980.25;;;2.94;73.09
75536;BME280;64119;52.070;20.804;2023-05-10T03:53:59;100979.14;;;3.05;73.37
75536;BME280;64119;52.070;20.804;2023-05-10T03:56:26;100976.97;;;3.16;71.35
75536;BME280;64119;52.070;20.804;2023-05-10T03:58:54;100977.27;;;3.29;73.54
75536;BME280;64119;52.070;20.804;2023-05-10T04:01:22;100973.02;;;3.45;75.45
75536;BME280;64119;52.070;20.804;2023-05-10T04:03:50;100972.77;;;3.56;72.05
75536;BME280;64119;52.070;20.804;2023-05-10T04:06:18;100968.95;;;3.72;72.41
75536;BME280;64119;52.070;20.804;2023-05-10T04:08:45;100968.77;;;3.88;72.87
75536;BME280;64119;52.070;20.804;2023-05-10T04:11:13;100968.75;;;4.02;72.32
75536;BME280;64119;52.070;20.804;2023-05-10T04:13:41;100969.45;;;4.17;71.01
75536;BME280;64119;52.070;20.804;2023-05-10T04:16:10;100965.52;;;4.34;72.61
75536;BME280;64119;52.070;20.804;2023-05-10T04:18:38;100967.15;;;4.49;71.48
75536;BME280;64119;52.070;20.804;2023-05-10T04:21:13;100970.30;;;4.64;71.27
75536;BME280;64119;52.070;20.804;2023-05-10T04:23:41;100969.50;;;4.79;71.20
75536;BME280;64119;52.070;20.804;2023-05-10T04:26:08;100969.10;;;4.93;70.76
75536;BME280;64119;52.070;20.804;2023-05-10T04:28:36;100971.73;;;5.05;68.88
75536;BME280;64119;52.070;20.804;2023-05-10T04:31:06;100971.35;;;5.18;68.70
75536;BME280;64119;52.070;20.804;2023-05-10T04:33:35;100972.17;;;5.32;68.81
75536;BME280;64119;52.070;20.804;2023-05-10T04:36:04;100974.71;;;5.47;68.47
75536;BME280;64119;52.070;20.804;2023-05-10T04:38:32;100970.29;;;5.62;68.72
75536;BME280;64119;52.070;20.804;2023-05-10T04:41:09;100970.88;;;5.78;68.08
75536;BME280;64119;52.070;20.804;2023-05-10T04:43:38;100975.70;;;5.93;67.34
75536;BME280;64119;52.070;20.804;2023-05-10T04:46:06;100978.04;;;6.09;66.89
75536;BME280;64119;52.070;20.804;2023-05-10T04:48:37;100974.52;;;6.23;66.74
75536;BME280;64119;52.070;20.804;2023-05-10T04:51:04;100974.29;;;6.39;66.02
75536;BME280;64119;52.070;20.804;2023-05-10T04:53:34;100974.59;;;6.54;66.28
75536;BME280;64119;52.070;20.804;2023-05-10T04:56:01;100976.17;;;6.71;65.65
75536;BME280;64119;52.070;20.804;2023-05-10T04:58:29;100971.58;;;6.88;65.70
75536;BME280;64119;52.070;20.804;2023-05-10T05:00:59;100976.30;;;7.04;64.97
75536;BME280;64119;52.070;20.804;2023-05-10T05:03:31;100976.42;;;7.20;64.88
75536;BME280;64119;52.070;20.804;2023-05-10T05:06:00;100975.21;;;7.36;64.26
75536;BME280;64119;52.070;20.804;2023-05-10T05:08:28;100968.35;;;7.53;64.18
75536;BME280;64119;52.070;20.804;2023-05-10T05:10:55;100970.48;;;7.69;63.42
75536;BME280;64119;52.070;20.804;2023-05-10T05:13:23;100972.33;;;7.85;63.28
75536;BME280;64119;52.070;20.804;2023-05-10T05:15:52;100970.08;;;8.01;62.74
75536;BME280;64119;52.070;20.804;2023-05-10T05:18:21;100972.63;;;8.20;61.93
75536;BME280;64119;52.070;20.804;2023-05-10T05:20:48;100969.98;;;8.37;60.72
75536;BME280;64119;52.070;20.804;2023-05-10T05:23:16;100970.17;;;8.50;61.66
75536;BME280;64119;52.070;20.804;2023-05-10T05:25:44;100967.77;;;8.65;61.13
75536;BME280;64119;52.070;20.804;2023-05-10T05:28:12;100965.46;;;8.81;60.41
75536;BME280;64119;52.070;20.804;2023-05-10T05:30:39;100965.91;;;8.96;60.33
75536;BME280;64119;52.070;20.804;2023-05-10T05:33:07;100966.50;;;9.12;59.64
75536;BME280;64119;52.070;20.804;2023-05-10T05:35:35;100967.85;;;9.27;58.93
75536;BME280;64119;52.070;20.804;2023-05-10T05:38:03;100966.52;;;9.43;58.84
75536;BME280;64119;52.070;20.804;2023-05-10T05:40:31;100965.67;;;9.58;58.89
75536;BME280;64119;52.070;20.804;2023-05-10T05:42:58;100962.30;;;9.74;57.76
75536;BME280;64119;52.070;20.804;2023-05-10T05:45:26;100965.12;;;9.88;57.93
75536;BME280;64119;52.070;20.804;2023-05-10T05:47:54;100961.34;;;10.03;57.25
75536;BME280;64119;52.070;20.804;2023-05-10T05:50:22;100960.58;;;10.17;56.42
75536;BME280;64119;52.070;20.804;2023-05-10T05:52:50;100959.14;;;10.29;55.85
75536;BME280;64119;52.070;20.804;2023-05-10T05:55:18;100954.05;;;10.43;56.07
75536;BME280;64119;52.070;20.804;2023-05-10T05:57:46;100952.89;;;10.61;54.87
75536;BME280;64119;52.070;20.804;2023-05-10T06:00:14;100957.17;;;10.78;53.89
75536;BME280;64119;52.070;20.804;2023-05-10T06:02:42;100953.47;;;10.93;53.89
75536;BME280;64119;52.070;20.804;2023-05-10T06:05:10;100955.21;;;11.08;54.62
75536;BME280;64119;52.070;20.804;2023-05-10T06:07:38;100956.90;;;11.26;53.75
75536;BME280;64119;52.070;20.804;2023-05-10T06:10:09;100957.30;;;11.46;53.55
75536;BME280;64119;52.070;20.804;2023-05-10T06:12:37;100953.88;;;11.66;53.55
75536;BME280;64119;52.070;20.804;2023-05-10T06:15:05;100955.48;;;11.83;52.40
75536;BME280;64119;52.070;20.804;2023-05-10T06:17:33;100958.23;;;11.97;51.11
75536;BME280;64119;52.070;20.804;2023-05-10T06:20:01;100956.27;;;12.12;51.08
75536;BME280;64119;52.070;20.804;2023-05-10T06:22:29;100960.60;;;12.31;50.68
75536;BME280;64119;52.070;20.804;2023-05-10T06:24:57;100957.83;;;12.44;50.04
75536;BME280;64119;52.070;20.804;2023-05-10T06:27:24;100959.44;;;12.62;51.14
75536;BME280;64119;52.070;20.804;2023-05-10T06:29:52;100954.73;;;12.80;49.38
75536;BME280;64119;52.070;20.804;2023-05-10T06:32:35;100953.02;;;12.96;48.33
75536;BME280;64119;52.070;20.804;2023-05-10T06:35:03;100951.46;;;13.10;47.32
75536;BME280;64119;52.070;20.804;2023-05-10T06:37:31;100956.08;;;13.21;47.52
75536;BME280;64119;52.070;20.804;2023-05-10T06:39:59;100954.41;;;13.32;46.33
75536;BME280;64119;52.070;20.804;2023-05-10T06:42:27;100958.36;;;13.42;45.18
75536;BME280;64119;52.070;20.804;2023-05-10T06:44:54;100958.70;;;13.49;45.19
75536;BME280;64119;52.070;20.804;2023-05-10T06:47:22;100957.51;;;13.57;44.74
75536;BME280;64119;52.070;20.804;2023-05-10T06:49:50;100954.77;;;13.64;44.46
75536;BME280;64119;52.070;20.804;2023-05-10T06:52:18;100953.77;;;13.72;43.61
75536;BME280;64119;52.070;20.804;2023-05-10T06:54:46;100953.58;;;13.79;44.00
75536;BME280;64119;52.070;20.804;2023-05-10T06:57:13;100945.70;;;13.86;42.18
75536;BME280;64119;52.070;20.804;2023-05-10T06:59:58;100948.89;;;13.92;42.16
75536;BME280;64119;52.070;20.804;2023-05-10T07:02:26;100943.29;;;13.94;41.31
75536;BME280;64119;52.070;20.804;2023-05-10T07:04:54;100943.23;;;13.98;42.54
75536;BME280;64119;52.070;20.804;2023-05-10T07:07:22;100949.00;;;14.11;42.56
75536;BME280;64119;52.070;20.804;2023-05-10T07:09:49;100944.30;;;14.23;41.32
75536;BME280;64119;52.070;20.804;2023-05-10T07:12:19;100942.73;;;14.31;41.21
75536;BME280;64119;52.070;20.804;2023-05-10T07:14:47;100942.46;;;14.42;41.80
75536;BME280;64119;52.070;20.804;2023-05-10T07:17:15;100945.90;;;14.57;39.59
75536;BME280;64119;52.070;20.804;2023-05-10T07:19:43;100939.95;;;14.57;39.04
75536;BME280;64119;52.070;20.804;2023-05-10T07:22:11;100935.73;;;14.61;39.47
75536;BME280;64119;52.070;20.804;2023-05-10T07:24:38;100937.71;;;14.68;38.39
75536;BME280;64119;52.070;20.804;2023-05-10T07:27:06;100936.48;;;14.69;38.55
75536;BME280;64119;52.070;20.804;2023-05-10T07:29:35;100945.59;;;14.78;38.48
75536;BME280;64119;52.070;20.804;2023-05-10T07:32:03;100944.73;;;14.83;36.98
75536;BME280;64119;52.070;20.804;2023-05-10T07:34:31;100945.81;;;14.89;36.27
75536;BME280;64119;52.070;20.804;2023-05-10T07:36:59;100948.63;;;14.98;36.28
75536;BME280;64119;52.070;20.804;2023-05-10T07:39:27;100944.86;;;15.05;35.40
75536;BME280;64119;52.070;20.804;2023-05-10T07:41:55;100942.61;;;15.14;36.61
75536;BME280;64119;52.070;20.804;2023-05-10T07:44:23;100940.48;;;15.32;35.90
75536;BME280;64119;52.070;20.804;2023-05-10T07:46:51;100942.61;;;15.45;35.53
75536;BME280;64119;52.070;20.804;2023-05-10T07:49:19;100942.22;;;15.50;34.01
75536;BME280;64119;52.070;20.804;2023-05-10T07:51:47;100943.62;;;15.49;33.81
75536;BME280;64119;52.070;20.804;2023-05-10T07:54:16;100944.56;;;15.51;33.33
75536;BME280;64119;52.070;20.804;2023-05-10T07:56:44;100944.16;;;15.47;32.30
75536;BME280;64119;52.070;20.804;2023-05-10T07:59:16;100937.52;;;15.51;32.26
75536;BME280;64119;52.070;20.804;2023-05-10T08:01:44;100928.81;;;15.47;31.48
75536;BME280;64119;52.070;20.804;2023-05-10T08:04:12;100926.70;;;15.46;31.90
75536;BME280;64119;52.070;20.804;2023-05-10T08:06:40;100920.55;;;15.53;32.03
75536;BME280;64119;52.070;20.804;2023-05-10T08:09:08;100927.61;;;15.62;31.54
75536;BME280;64119;52.070;20.804;2023-05-10T08:11:36;100925.20;;;15.75;32.01
75536;BME280;64119;52.070;20.804;2023-05-10T08:14:04;100930.21;;;15.79;30.52
75536;BME280;64119;52.070;20.804;2023-05-10T08:16:32;100926.34;;;15.88;31.76
75536;BME280;64119;52.070;20.804;2023-05-10T08:19:00;100928.65;;;16.03;31.88
75536;BME280;64119;52.070;20.804;2023-05-10T08:21:28;100927.30;;;16.12;30.96
75536;BME280;64119;52.070;20.804;2023-05-10T08:23:56;100926.91;;;16.18;31.22
75536;BME280;64119;52.070;20.804;2023-05-10T08:26:23;100916.66;;;16.25;30.72
75536;BME280;64119;52.070;20.804;2023-05-10T08:28:51;100922.85;;;16.25;30.38
75536;BME280;64119;52.070;20.804;2023-05-10T08:31:19;100922.96;;;16.32;30.55
75536;BME280;64119;52.070;20.804;2023-05-10T08:33:47;100922.31;;;16.44;30.31
75536;BME280;64119;52.070;20.804;2023-05-10T08:36:15;100920.08;;;16.49;31.05
75536;BME280;64119;52.070;20.804;2023-05-10T08:38:52;100919.77;;;16.59;31.83
75536;BME280;64119;52.070;20.804;2023-05-10T08:41:21;100929.75;;;16.67;30.51
75536;BME280;64119;52.070;20.804;2023-05-10T08:43:53;100925.83;;;16.68;30.16
75536;BME280;64119;52.070;20.804;2023-05-10T08:46:22;100922.89;;;16.68;30.02
75536;BME280;64119;52.070;20.804;2023-05-10T08:48:50;100921.08;;;16.85;30.93
75536;BME280;64119;52.070;20.804;2023-05-10T08:51:22;100918.63;;;17.04;30.68
75536;BME280;64119;52.070;20.804;2023-05-10T08:53:51;100923.81;;;17.25;30.68
75536;BME280;64119;52.070;20.804;2023-05-10T08:56:19;100923.27;;;17.41;31.23
75536;BME280;64119;52.070;20.804;2023-05-10T08:58:48;100926.88;;;17.49;29.75
75536;BME280;64119;52.070;20.804;2023-05-10T09:01:18;100922.75;;;17.60;30.37
75536;BME280;64119;52.070;20.804;2023-05-10T09:03:47;100914.35;;;17.80;30.39
75536;BME280;64119;52.070;20.804;2023-05-10T09:06:15;100907.28;;;18.00;30.05
75536;BME280;64119;52.070;20.804;2023-05-10T09:08:44;100909.91;;;18.18;30.63
75536;BME280;64119;52.070;20.804;2023-05-10T09:11:13;100904.93;;;18.28;30.30
75536;BME280;64119;52.070;20.804;2023-05-10T09:13:42;100905.58;;;18.46;30.29
75536;BME280;64119;52.070;20.804;2023-05-10T09:16:11;100902.18;;;18.76;30.56
75536;BME280;64119;52.070;20.804;2023-05-10T09:18:48;100904.48;;;18.87;29.82
75536;BME280;64119;52.070;20.804;2023-05-10T09:21:17;100899.73;;;19.09;29.47
75536;BME280;64119;52.070;20.804;2023-05-10T09:23:45;100898.20;;;19.25;29.22
75536;BME280;64119;52.070;20.804;2023-05-10T09:26:15;100906.35;;;19.58;28.13
75536;BME280;64119;52.070;20.804;2023-05-10T09:28:54;100899.58;;;19.77;27.95
75536;BME280;64119;52.070;20.804;2023-05-10T09:31:23;100897.30;;;19.89;28.25
75536;BME280;64119;52.070;20.804;2023-05-10T09:33:52;100893.59;;;20.09;27.11
75536;BME280;64119;52.070;20.804;2023-05-10T09:36:20;100901.05;;;20.15;27.15
75536;BME280;64119;52.070;20.804;2023-05-10T09:38:51;100901.77;;;20.06;26.31
75536;BME280;64119;52.070;20.804;2023-05-10T09:41:21;100890.00;;;20.23;27.63
75536;BME280;64119;52.070;20.804;2023-05-10T09:43:49;100880.63;;;20.53;26.62
75536;BME280;64119;52.070;20.804;2023-05-10T09:46:17;100881.11;;;20.55;26.50
75536;BME280;64119;52.070;20.804;2023-05-10T09:48:46;100883.52;;;20.68;25.82
75536;BME280;64119;52.070;20.804;2023-05-10T09:51:24;100881.71;;;20.44;25.69
75536;BME280;64119;52.070;20.804;2023-05-10T09:54:08;100885.98;;;20.36;26.01
75536;BME280;64119;52.070;20.804;2023-05-10T09:56:37;100888.05;;;20.05;24.94
75536;BME280;64119;52.070;20.804;2023-05-10T09:59:11;100889.79;;;20.00;25.25
75536;BME280;64119;52.070;20.804;2023-05-10T10:01:40;100891.85;;;20.30;24.72
75536;BME280;64119;52.070;20.804;2023-05-10T10:04:09;100887.94;;;20.37;25.06
75536;BME280;64119;52.070;20.804;2023-05-10T10:06:40;100884.91;;;20.67;25.73
75536;BME280;64119;52.070;20.804;2023-05-10T10:09:08;100877.89;;;20.73;24.76
75536;BME280;64119;52.070;20.804;2023-05-10T10:11:38;100869.57;;;20.75;24.71
75536;BME280;64119;52.070;20.804;2023-05-10T10:14:06;100875.25;;;20.58;23.59
75536;BME280;64119;52.070;20.804;2023-05-10T10:16:34;100870.38;;;20.66;24.45
75536;BME280;64119;52.070;20.804;2023-05-10T10:19:02;100870.29;;;20.82;24.27
75536;BME280;64119;52.070;20.804;2023-05-10T10:21:30;100860.39;;;20.77;24.34
75536;BME280;64119;52.070;20.804;2023-05-10T10:23:59;100855.59;;;20.87;24.34
75536;BME280;64119;52.070;20.804;2023-05-10T10:26:27;100852.88;;;21.06;24.98
75536;BME280;64119;52.070;20.804;2023-05-10T10:29:36;100858.89;;;21.27;24.65
75536;BME280;64119;52.070;20.804;2023-05-10T10:34:54;100853.55;;;21.35;23.41
75536;BME280;64119;52.070;20.804;2023-05-10T10:37:23;100859.25;;;21.27;23.88
75536;BME280;64119;52.070;20.804;2023-05-10T10:40:29;100853.71;;;21.42;24.15
75536;BME280;64119;52.070;20.804;2023-05-10T10:43:29;100847.31;;;21.66;24.55
75536;BME280;64119;52.070;20.804;2023-05-10T10:46:16;100843.66;;;22.07;23.71
75536;BME280;64119;52.070;20.804;2023-05-10T10:48:50;100835.85;;;22.13;23.72
75536;BME280;64119;52.070;20.804;2023-05-10T10:51:19;100845.95;;;22.13;23.22
75536;BME280;64119;52.070;20.804;2023-05-10T10:53:48;100837.79;;;22.09;24.79
75536;BME280;64119;52.070;20.804;2023-05-10T10:56:21;100832.29;;;22.09;23.85
75536;BME280;64119;52.070;20.804;2023-05-10T10:58:51;100825.42;;;22.14;24.50
75536;BME280;64119;52.070;20.804;2023-05-10T11:01:20;100847.36;;;22.27;23.26
75536;BME280;64119;52.070;20.804;2023-05-10T11:04:17;100840.48;;;22.08;21.54
75536;BME280;64119;52.070;20.804;2023-05-10T11:06:45;100833.01;;;21.96;23.16
75536;BME280;64119;52.070;20.804;2023-05-10T11:09:12;100831.95;;;21.80;22.48
75536;BME280;64119;52.070;20.804;2023-05-10T11:11:54;100826.63;;;21.51;24.06
75536;BME280;64119;52.070;20.804;2023-05-10T11:14:26;100836.40;;;21.70;23.66
75536;BME280;64119;52.070;20.804;2023-05-10T11:16:54;100832.84;;;21.75;22.34
75536;BME280;64119;52.070;20.804;2023-05-10T11:19:27;100827.89;;;21.67;23.56
75536;BME280;64119;52.070;20.804;2023-05-10T11:24:31;100821.96;;;21.06;24.26
75536;BME280;64119;52.070;20.804;2023-05-10T11:27:00;100819.58;;;21.00;23.92
75536;BME280;64119;52.070;20.804;2023-05-10T11:29:28;100821.63;;;20.78;24.46
75536;BME280;64119;52.070;20.804;2023-05-10T11:31:57;100819.16;;;20.70;23.62
75536;BME280;64119;52.070;20.804;2023-05-10T11:34:30;100816.77;;;20.69;23.80
75536;BME280;64119;52.070;20.804;2023-05-10T11:37:01;100817.52;;;20.75;23.96
75536;BME280;64119;52.070;20.804;2023-05-10T11:39:30;100815.48;;;20.91;23.60
75536;BME280;64119;52.070;20.804;2023-05-10T11:41:59;100823.63;;;20.91;24.70
75536;BME280;64119;52.070;20.804;2023-05-10T11:44:31;100822.97;;;21.05;23.41
75536;BME280;64119;52.070;20.804;2023-05-10T11:47:01;100808.41;;;20.97;23.96
75536;BME280;64119;52.070;20.804;2023-05-10T11:49:29;100811.70;;;20.94;24.27
75536;BME280;64119;52.070;20.804;2023-05-10T11:52:07;100817.33;;;20.95;24.29
75536;BME280;64119;52.070;20.804;2023-05-10T11:54:35;100813.35;;;20.74;24.69
75536;BME280;64119;52.070;20.804;2023-05-10T11:57:03;100808.22;;;20.45;24.33
75536;BME280;64119;52.070;20.804;2023-05-10T11:59:31;100809.07;;;20.34;24.24
75536;BME280;64119;52.070;20.804;2023-05-10T12:01:59;100816.20;;;20.14;24.84
75536;BME280;64119;52.070;20.804;2023-05-10T12:04:27;100807.34;;;20.10;24.84
75536;BME280;64119;52.070;20.804;2023-05-10T12:06:57;100800.88;;;19.83;24.48
75536;BME280;64119;52.070;20.804;2023-05-10T12:09:25;100806.31;;;19.72;24.73
75536;BME280;64119;52.070;20.804;2023-05-10T12:12:10;100809.14;;;19.64;24.66
75536;BME280;64119;52.070;20.804;2023-05-10T12:14:38;100809.64;;;19.55;25.22
75536;BME280;64119;52.070;20.804;2023-05-10T12:17:05;100800.56;;;19.53;25.01
75536;BME280;64119;52.070;20.804;2023-05-10T12:19:40;100805.60;;;19.54;25.57
75536;BME280;64119;52.070;20.804;2023-05-10T12:22:08;100799.05;;;19.48;25.12
75536;BME280;64119;52.070;20.804;2023-05-10T12:24:36;100800.01;;;19.34;25.21
75536;BME280;64119;52.070;20.804;2023-05-10T12:27:07;100798.98;;;19.30;25.57
75536;BME280;64119;52.070;20.804;2023-05-10T12:29:36;100800.72;;;19.32;25.00
75536;BME280;64119;52.070;20.804;2023-05-10T12:32:04;100794.49;;;19.24;25.08
75536;BME280;64119;52.070;20.804;2023-05-10T12:34:33;100788.46;;;19.21;25.66
75536;BME280;64119;52.070;20.804;2023-05-10T12:37:03;100791.65;;;19.19;26.28
75536;BME280;64119;52.070;20.804;2023-05-10T12:39:40;100803.20;;;19.12;25.91
75536;BME280;64119;52.070;20.804;2023-05-10T12:42:09;100796.29;;;18.97;25.86
75536;BME280;64119;52.070;20.804;2023-05-10T12:44:38;100787.66;;;18.96;26.34
75536;BME280;64119;52.070;20.804;2023-05-10T12:47:05;100794.28;;;18.94;26.54
75536;BME280;64119;52.070;20.804;2023-05-10T12:49:33;100790.79;;;19.04;25.88
75536;BME280;64119;52.070;20.804;2023-05-10T12:52:02;100786.56;;;18.97;26.02
75536;BME280;64119;52.070;20.804;2023-05-10T12:54:30;100773.27;;;18.86;25.60
75536;BME280;64119;52.070;20.804;2023-05-10T12:56:57;100772.11;;;18.91;25.95
75536;BME280;64119;52.070;20.804;2023-05-10T12:59:25;100775.71;;;18.91;26.59
75536;BME280;64119;52.070;20.804;2023-05-10T13:01:53;100781.99;;;18.89;26.80
75536;BME280;64119;52.070;20.804;2023-05-10T13:04:22;100779.86;;;18.97;26.60
75536;BME280;64119;52.070;20.804;2023-05-10T13:06:50;100774.36;;;19.00;26.57
75536;BME280;64119;52.070;20.804;2023-05-10T13:09:18;100767.50;;;19.11;27.20
75536;BME280;64119;52.070;20.804;2023-05-10T13:11:46;100768.92;;;19.16;27.09
75536;BME280;64119;52.070;20.804;2023-05-10T13:14:15;100763.23;;;19.07;26.69
75536;BME280;64119;52.070;20.804;2023-05-10T13:16:43;100767.43;;;19.01;26.67
75536;BME280;64119;52.070;20.804;2023-05-10T13:19:10;100773.60;;;18.91;26.49